createdAt,value
2023-06-19T00:01:11.315Z,81.11
2023-06-19T00:03:38.523Z,81.07
2023-06-19T00:06:06.958Z,81.08
2023-06-19T00:08:34.300Z,80.33
2023-06-19T00:11:01.430Z,80.32
2023-06-19T00:13:28.670Z,81.33
2023-06-19T00:15:56.676Z,81.31
2023-06-19T00:18:23.891Z,81.49
2023-06-19T00:20:51.584Z,80.82
2023-06-19T00:23:18.854Z,81.11
2023-06-19T00:25:46.066Z,80.78
2023-06-19T00:28:15.063Z,80.94
2023-06-19T00:30:43.244Z,81.23
2023-06-19T00:33:10.679Z,81.23
2023-06-19T00:35:38.200Z,80.95
2023-06-19T00:38:06.893Z,80.47
2023-06-19T00:40:35.394Z,80.95
2023-06-19T00:43:03.923Z,81.18
2023-06-19T00:45:31.259Z,80.58
2023-06-19T00:48:00.716Z,80.90
2023-06-19T00:50:31.140Z,80.89
2023-06-19T00:53:00.016Z,80.92
2023-06-19T00:55:33.586Z,80.92
2023-06-19T00:58:01.759Z,80.92
2023-06-19T01:00:28.981Z,80.81
2023-06-19T01:02:58.636Z,81.60
2023-06-19T01:05:26.467Z,81.43
2023-06-19T01:08:03.602Z,82.03
2023-06-19T01:10:37.762Z,81.38
2023-06-19T01:13:24.018Z,81.84
2023-06-19T01:15:51.675Z,80.99
2023-06-19T01:18:19.016Z,81.43
2023-06-19T01:20:46.606Z,81.39
2023-06-19T01:23:14.060Z,81.42
2023-06-19T01:25:41.337Z,82.46
2023-06-19T01:28:12.875Z,81.93
2023-06-19T01:30:42.231Z,81.77
2023-06-19T01:33:29.806Z,82.23
2023-06-19T01:35:58.785Z,81.48
2023-06-19T01:38:30.030Z,81.58
2023-06-19T01:40:58.955Z,81.47
2023-06-19T01:43:27.397Z,81.55
2023-06-19T01:45:54.783Z,81.81
2023-06-19T01:48:22.141Z,81.71
2023-06-19T01:50:50.840Z,81.68
2023-06-19T01:53:18.148Z,82.06
2023-06-19T01:55:47.348Z,82.02
2023-06-19T01:58:14.664Z,81.65
2023-06-19T02:00:41.933Z,81.88
2023-06-19T02:03:09.275Z,83.02
2023-06-19T02:05:40.645Z,83.27
2023-06-19T02:08:08.141Z,82.58
2023-06-19T02:10:37.737Z,82.78
2023-06-19T02:13:05.092Z,83.01
2023-06-19T02:15:32.282Z,83.28
2023-06-19T02:18:01.246Z,82.84
2023-06-19T02:20:29.263Z,82.67
2023-06-19T02:22:59.128Z,82.97
2023-06-19T02:25:26.424Z,83.40
2023-06-19T02:27:53.720Z,83.28
2023-06-19T02:30:22.078Z,84.09
2023-06-19T02:32:50.360Z,84.11
2023-06-19T02:35:18.393Z,84.02
2023-06-19T02:37:47.607Z,84.03
2023-06-19T02:40:15.485Z,83.94
2023-06-19T02:42:43.775Z,83.20
2023-06-19T02:45:11.101Z,82.93
2023-06-19T02:47:38.431Z,83.49
2023-06-19T02:50:06.627Z,82.89
2023-06-19T02:52:33.859Z,82.75
2023-06-19T02:55:01.133Z,82.56
2023-06-19T02:57:28.627Z,82.09
2023-06-19T02:59:55.860Z,82.02
2023-06-19T03:02:23.138Z,82.09
2023-06-19T03:04:51.312Z,82.41
2023-06-19T03:07:18.531Z,82.69
2023-06-19T03:09:45.807Z,82.28
2023-06-19T03:12:14.198Z,82.32
2023-06-19T03:14:41.928Z,82.59
2023-06-19T03:17:09.489Z,82.39
2023-06-19T03:19:36.865Z,81.98
2023-06-19T03:22:05.394Z,82.22
2023-06-19T03:24:33.315Z,82.28
2023-06-19T03:27:14.090Z,82.24
2023-06-19T03:29:41.342Z,82.45
2023-06-19T03:32:10.494Z,82.80
2023-06-19T03:34:37.858Z,83.26
2023-06-19T03:37:08.654Z,82.25
2023-06-19T03:39:36.808Z,82.56
2023-06-19T03:42:08.275Z,83.01
2023-06-19T03:44:35.935Z,82.90
2023-06-19T03:47:03.254Z,82.92
2023-06-19T03:49:30.988Z,82.75
2023-06-19T03:51:58.191Z,83.03
2023-06-19T03:54:27.232Z,83.81
2023-06-19T03:56:54.477Z,83.03
2023-06-19T03:59:21.837Z,82.95
2023-06-19T04:01:49.084Z,83.22
2023-06-19T04:04:17.979Z,83.30
2023-06-19T04:06:45.227Z,83.18
2023-06-19T04:09:13.840Z,83.84
2023-06-19T04:11:41.036Z,83.34
2023-06-19T04:14:08.264Z,83.08
2023-06-19T04:16:37.189Z,82.26
2023-06-19T04:19:04.500Z,81.41
2023-06-19T04:21:31.710Z,81.57
2023-06-19T04:23:59.091Z,81.17
2023-06-19T04:26:26.452Z,80.69
2023-06-19T04:28:54.591Z,80.35
2023-06-19T04:31:22.549Z,80.68
2023-06-19T04:33:49.863Z,79.73
2023-06-19T04:36:17.004Z,79.13
2023-06-19T04:38:46.402Z,78.67
2023-06-19T04:41:14.082Z,75.56
2023-06-19T04:43:42.740Z,72.67
2023-06-19T04:46:10.004Z,73.02
2023-06-19T04:48:37.901Z,70.32
2023-06-19T04:51:05.302Z,67.83
2023-06-19T04:53:32.680Z,66.03
2023-06-19T04:56:01.538Z,67.80
2023-06-19T04:58:29.926Z,66.73
2023-06-19T05:00:57.123Z,65.54
2023-06-19T05:03:24.378Z,67.37
2023-06-19T05:05:51.912Z,63.13
2023-06-19T05:08:19.159Z,61.69
2023-06-19T05:10:46.758Z,60.57
2023-06-19T05:13:14.044Z,59.94
2023-06-19T05:15:41.246Z,60.38
2023-06-19T05:18:08.772Z,59.16
2023-06-19T05:20:36.013Z,60.56
2023-06-19T05:23:03.205Z,62.71
2023-06-19T05:25:30.510Z,60.22
2023-06-19T05:27:57.710Z,59.05
2023-06-19T05:30:25.120Z,57.86
2023-06-19T05:32:52.725Z,57.31
2023-06-19T05:35:20.134Z,57.51
2023-06-19T05:37:47.383Z,58.18
2023-06-19T05:40:14.992Z,57.78
2023-06-19T05:42:42.197Z,61.27
2023-06-19T05:45:09.722Z,60.11
2023-06-19T05:47:37.132Z,57.44
2023-06-19T05:50:04.585Z,55.90
2023-06-19T05:52:31.815Z,56.09
2023-06-19T05:54:59.657Z,53.82
2023-06-19T05:57:27.061Z,53.99
2023-06-19T05:59:54.284Z,52.83
2023-06-19T06:02:21.710Z,54.01
2023-06-19T06:04:49.229Z,54.17
2023-06-19T06:07:16.738Z,53.21
2023-06-19T06:09:44.111Z,54.34
2023-06-19T06:12:11.535Z,51.64
2023-06-19T06:14:38.800Z,51.15
2023-06-19T06:17:07.314Z,50.67
2023-06-19T06:19:34.629Z,49.63
2023-06-19T06:22:01.941Z,48.70
2023-06-19T06:24:29.217Z,49.20
2023-06-19T06:26:56.866Z,47.27
2023-06-19T06:29:24.177Z,47.37
2023-06-19T06:31:53.646Z,48.59
2023-06-19T06:34:20.867Z,50.39
2023-06-19T06:37:00.991Z,49.63
2023-06-19T06:39:33.047Z,48.77
2023-06-19T06:42:00.266Z,46.63
2023-06-19T06:44:28.003Z,47.80
2023-06-19T06:46:56.571Z,46.97
2023-06-19T06:49:23.839Z,47.28
2023-06-19T06:51:51.069Z,46.24
2023-06-19T06:54:18.375Z,46.86
2023-06-19T06:56:48.928Z,48.11
2023-06-19T06:59:18.910Z,46.08
2023-06-19T07:01:46.089Z,45.79
2023-06-19T07:04:13.382Z,42.49
2023-06-19T07:06:40.581Z,44.50
2023-06-19T07:09:08.141Z,42.54
2023-06-19T07:11:35.400Z,46.08
2023-06-19T07:14:03.828Z,46.74
2023-06-19T07:16:31.095Z,44.68
2023-06-19T07:18:58.400Z,47.43
2023-06-19T07:21:25.897Z,46.57
2023-06-19T07:23:53.445Z,43.56
2023-06-19T07:26:20.827Z,43.46
2023-06-19T07:28:48.104Z,44.48
2023-06-19T07:31:15.256Z,45.89
2023-06-19T07:33:42.534Z,44.11
2023-06-19T07:36:14.968Z,44.20
2023-06-19T07:38:43.583Z,44.16
2023-06-19T07:41:12.130Z,39.71
2023-06-19T07:43:39.717Z,38.17
2023-06-19T07:46:07.024Z,40.43
2023-06-19T07:48:34.308Z,40.54
2023-06-19T07:51:01.497Z,40.34
2023-06-19T07:53:28.889Z,37.52
2023-06-19T07:55:56.216Z,39.68
2023-06-19T07:58:23.575Z,39.10
2023-06-19T08:00:50.799Z,38.92
2023-06-19T08:03:18.218Z,38.36
2023-06-19T08:05:45.546Z,36.57
2023-06-19T08:08:14.413Z,38.88
2023-06-19T08:10:42.197Z,38.39
2023-06-19T08:13:09.482Z,38.62
2023-06-19T08:15:36.635Z,38.66
2023-06-19T08:18:03.967Z,35.61
2023-06-19T08:20:31.676Z,33.70
2023-06-19T08:22:58.907Z,35.59
2023-06-19T08:25:26.182Z,36.97
2023-06-19T08:27:54.092Z,38.68
2023-06-19T08:30:21.351Z,38.39
2023-06-19T08:32:49.378Z,38.18
2023-06-19T08:35:16.849Z,38.51
2023-06-19T08:37:44.797Z,36.42
2023-06-19T08:40:16.015Z,34.47
2023-06-19T08:42:44.581Z,35.58
2023-06-19T08:45:12.099Z,34.42
2023-06-19T08:47:41.895Z,31.98
2023-06-19T08:50:09.432Z,34.06
2023-06-19T08:52:36.685Z,31.46
2023-06-19T08:55:06.693Z,32.97
2023-06-19T08:57:35.573Z,31.71
2023-06-19T09:00:04.204Z,34.21
2023-06-19T09:02:41.870Z,34.03
2023-06-19T09:05:19.743Z,34.43
2023-06-19T09:07:56.623Z,33.20
2023-06-19T09:10:25.153Z,31.89
2023-06-19T09:13:02.955Z,32.29
2023-06-19T09:15:32.971Z,33.02
2023-06-19T09:18:12.595Z,33.28
2023-06-19T09:20:45.402Z,34.26
2023-06-19T09:23:13.608Z,36.30
2023-06-19T09:25:52.488Z,35.16
2023-06-19T09:28:27.960Z,35.07
2023-06-19T09:31:00.468Z,34.48
2023-06-19T09:33:30.679Z,35.74
2023-06-19T09:36:00.272Z,36.91
2023-06-19T09:38:32.648Z,38.66
2023-06-19T09:41:02.605Z,36.81
2023-06-19T09:43:44.358Z,37.06
2023-06-19T09:46:15.291Z,37.71
2023-06-19T09:48:44.809Z,39.33
2023-06-19T09:51:19.364Z,37.86
2023-06-19T09:53:48.113Z,37.60
2023-06-19T09:56:17.442Z,37.68
2023-06-19T09:58:45.882Z,37.99
2023-06-19T10:01:14.443Z,38.65
2023-06-19T10:03:41.996Z,38.15
2023-06-19T10:06:15.407Z,37.91
2023-06-19T10:08:44.715Z,37.84
2023-06-19T10:11:12.538Z,37.86
2023-06-19T10:13:42.626Z,36.07
2023-06-19T10:16:21.925Z,37.75
2023-06-19T10:18:49.404Z,36.33
2023-06-19T10:21:18.619Z,36.83
2023-06-19T10:23:58.819Z,37.93
2023-06-19T10:26:36.698Z,37.88
2023-06-19T10:29:15.512Z,38.68
2023-06-19T10:31:42.994Z,39.10
2023-06-19T10:34:10.254Z,36.98
2023-06-19T10:36:37.570Z,38.31
2023-06-19T10:39:05.560Z,36.70
2023-06-19T10:41:33.203Z,37.13
2023-06-19T10:44:05.705Z,38.13
2023-06-19T10:46:35.044Z,37.01
2023-06-19T10:49:05.342Z,37.35
2023-06-19T10:51:36.943Z,37.53
2023-06-19T10:54:04.452Z,38.44
2023-06-19T10:56:31.835Z,37.55
2023-06-19T10:59:04.511Z,37.61
2023-06-19T11:01:40.002Z,38.30
2023-06-19T11:04:09.072Z,37.85
2023-06-19T11:06:37.380Z,37.91
2023-06-19T11:09:09.125Z,38.81
2023-06-19T11:11:41.678Z,38.46
2023-06-19T11:14:10.043Z,38.47
2023-06-19T11:16:48.277Z,38.53
2023-06-19T11:19:20.861Z,38.98
2023-06-19T11:21:52.882Z,40.05
2023-06-19T11:24:21.900Z,41.49
2023-06-19T11:26:51.464Z,38.78
2023-06-19T11:29:21.517Z,40.12
2023-06-19T11:31:49.905Z,39.50
2023-06-19T11:34:20.930Z,39.84
2023-06-19T11:36:51.501Z,39.69
2023-06-19T11:39:20.287Z,39.96
2023-06-19T11:41:47.993Z,39.73
2023-06-19T11:44:16.166Z,39.89
2023-06-19T11:46:43.898Z,38.16
2023-06-19T11:49:22.018Z,39.68
2023-06-19T11:51:49.341Z,39.61
2023-06-19T11:54:16.796Z,39.32
2023-06-19T11:56:44.561Z,38.52
2023-06-19T11:59:11.935Z,38.49
2023-06-19T12:01:39.724Z,38.63
2023-06-19T12:04:07.518Z,39.70
2023-06-19T12:06:36.800Z,39.26
2023-06-19T12:09:05.992Z,38.79
2023-06-19T12:11:33.393Z,39.28
2023-06-19T12:14:01.422Z,39.29
2023-06-19T12:16:29.766Z,38.99
2023-06-19T12:18:57.161Z,39.98
2023-06-19T12:21:35.724Z,39.53
2023-06-19T12:24:06.117Z,40.17
2023-06-19T12:26:38.150Z,39.68
2023-06-19T12:29:06.906Z,38.85
2023-06-19T12:31:40.241Z,39.64
2023-06-19T12:36:37.954Z,39.09
2023-06-19T12:39:10.441Z,38.84
2023-06-19T12:41:37.819Z,39.83
2023-06-19T12:44:05.043Z,39.30
2023-06-19T12:46:33.492Z,41.36
2023-06-19T12:49:01.091Z,40.37
2023-06-19T12:51:28.356Z,40.43
2023-06-19T12:53:55.571Z,42.06
2023-06-19T12:56:22.913Z,40.77
2023-06-19T12:58:50.139Z,40.40
2023-06-19T13:01:17.579Z,38.92
2023-06-19T13:03:44.988Z,39.39
2023-06-19T13:06:12.305Z,38.73
2023-06-19T13:08:39.503Z,40.02
2023-06-19T13:11:06.980Z,38.40
2023-06-19T13:13:34.239Z,39.34
2023-06-19T13:16:01.614Z,38.96
2023-06-19T13:18:28.879Z,40.63
2023-06-19T13:20:56.284Z,40.11
2023-06-19T13:23:23.424Z,40.25
2023-06-19T13:25:51.119Z,40.03
2023-06-19T13:28:18.835Z,41.19
2023-06-19T13:30:46.063Z,40.61
2023-06-19T13:33:13.350Z,41.14
2023-06-19T13:35:40.605Z,41.35
2023-06-19T13:38:08.109Z,43.84
2023-06-19T13:40:35.380Z,42.13
2023-06-19T13:43:04.714Z,42.38
2023-06-19T13:45:31.910Z,40.87
2023-06-19T13:47:59.257Z,40.98
2023-06-19T13:50:26.714Z,40.87
2023-06-19T13:52:54.739Z,40.58
2023-06-19T13:55:22.069Z,40.61
2023-06-19T13:57:49.409Z,40.99
2023-06-19T14:00:17.111Z,40.85
2023-06-19T14:02:44.437Z,42.64
2023-06-19T14:05:12.329Z,42.01
2023-06-19T14:07:41.576Z,42.77
2023-06-19T14:10:09.457Z,41.45
2023-06-19T14:12:36.697Z,43.57
2023-06-19T14:15:04.096Z,41.54
2023-06-19T14:17:31.382Z,42.05
2023-06-19T14:19:58.861Z,41.59
2023-06-19T14:22:26.168Z,41.68
2023-06-19T14:25:00.372Z,42.17
2023-06-19T14:27:27.735Z,41.92
2023-06-19T14:29:58.202Z,42.35
2023-06-19T14:32:25.691Z,42.78
2023-06-19T14:34:53.066Z,42.36
2023-06-19T14:37:20.599Z,43.50
2023-06-19T14:39:47.913Z,43.85
2023-06-19T14:42:15.086Z,43.86
2023-06-19T14:44:42.431Z,43.56
2023-06-19T14:47:10.029Z,43.30
2023-06-19T14:49:37.267Z,43.39
2023-06-19T14:52:04.990Z,42.75
2023-06-19T14:54:32.293Z,42.66
2023-06-19T14:56:59.800Z,43.31
2023-06-19T14:59:27.072Z,43.54
2023-06-19T15:01:54.334Z,43.65
2023-06-19T15:04:21.557Z,42.39
2023-06-19T15:06:48.796Z,44.28
2023-06-19T15:09:16.154Z,44.02
2023-06-19T15:11:43.382Z,43.72
2023-06-19T15:14:10.692Z,44.77
2023-06-19T15:16:38.221Z,43.84
2023-06-19T15:19:05.672Z,45.01
2023-06-19T15:21:33.019Z,45.93
2023-06-19T15:24:00.486Z,44.28
2023-06-19T15:26:27.758Z,45.13
2023-06-19T15:28:55.041Z,44.88
2023-06-19T15:31:23.907Z,44.66
2023-06-19T15:33:51.568Z,44.67
2023-06-19T15:36:19.019Z,45.01
2023-06-19T15:38:46.421Z,45.24
2023-06-19T15:41:14.278Z,44.76
2023-06-19T15:43:42.847Z,45.41
2023-06-19T15:46:10.227Z,44.87
2023-06-19T15:48:37.632Z,45.43
2023-06-19T15:51:04.934Z,45.13
2023-06-19T15:53:32.135Z,44.94
2023-06-19T15:55:59.750Z,46.03
2023-06-19T15:58:26.897Z,48.00
2023-06-19T16:00:54.353Z,46.37
2023-06-19T16:03:22.239Z,46.76
2023-06-19T16:06:06.044Z,46.37
2023-06-19T16:08:35.620Z,46.76
2023-06-19T16:11:05.836Z,47.61
2023-06-19T16:13:33.679Z,47.06
2023-06-19T16:16:00.985Z,47.13
2023-06-19T16:18:28.258Z,47.21
2023-06-19T16:20:55.958Z,47.09
2023-06-19T16:23:23.221Z,47.21
2023-06-19T16:25:50.471Z,47.80
2023-06-19T16:28:18.072Z,48.14
2023-06-19T16:30:45.291Z,47.82
2023-06-19T16:33:12.990Z,48.02
2023-06-19T16:35:40.192Z,48.11
2023-06-19T16:38:07.678Z,47.96
2023-06-19T16:40:34.874Z,47.55
2023-06-19T16:43:02.102Z,47.60
2023-06-19T16:45:29.326Z,48.37
2023-06-19T16:47:56.688Z,48.13
2023-06-19T16:50:24.401Z,48.53
2023-06-19T16:52:52.044Z,48.25
2023-06-19T16:55:23.194Z,48.63
2023-06-19T16:57:51.244Z,48.49
2023-06-19T17:00:19.387Z,48.52
2023-06-19T17:02:48.040Z,49.49
2023-06-19T17:05:15.680Z,49.16
2023-06-19T17:07:42.960Z,49.12
2023-06-19T17:10:10.714Z,48.87
2023-06-19T17:12:37.982Z,49.21
2023-06-19T17:15:05.699Z,49.53
2023-06-19T17:17:36.066Z,49.26
2023-06-19T17:20:06.008Z,49.84
2023-06-19T17:22:33.243Z,50.41
2023-06-19T17:25:00.483Z,50.48
2023-06-19T17:27:27.748Z,50.55
2023-06-19T17:29:54.961Z,51.11
2023-06-19T17:32:22.177Z,50.98
2023-06-19T17:34:49.512Z,51.34
2023-06-19T17:37:16.808Z,51.40
2023-06-19T17:39:44.094Z,51.46
2023-06-19T17:42:11.306Z,51.54
2023-06-19T17:44:38.577Z,51.73
2023-06-19T17:47:05.871Z,52.91
2023-06-19T17:49:33.168Z,52.56
2023-06-19T17:52:00.360Z,52.36
2023-06-19T17:54:27.702Z,52.83
2023-06-19T17:56:54.916Z,52.86
2023-06-19T17:59:22.296Z,52.93
2023-06-19T18:01:50.958Z,53.78
2023-06-19T18:04:18.194Z,54.20
2023-06-19T18:06:45.389Z,53.93
2023-06-19T18:09:12.607Z,54.33
2023-06-19T18:11:39.852Z,56.18
2023-06-19T18:14:07.136Z,55.83
2023-06-19T18:16:36.770Z,56.07
2023-06-19T18:19:06.234Z,56.05
2023-06-19T18:21:33.559Z,55.67
2023-06-19T18:24:03.243Z,57.35
2023-06-19T18:26:32.297Z,56.86
2023-06-19T18:28:59.609Z,57.72
2023-06-19T18:31:27.287Z,58.16
2023-06-19T18:33:55.517Z,58.90
2023-06-19T18:36:23.032Z,59.75
2023-06-19T18:38:50.255Z,59.71
2023-06-19T18:41:17.511Z,60.91
2023-06-19T18:43:44.733Z,61.13
2023-06-19T18:46:12.411Z,60.24
2023-06-19T18:48:39.578Z,60.32
2023-06-19T18:51:06.860Z,60.74
2023-06-19T18:53:34.017Z,59.16
2023-06-19T18:56:01.327Z,60.80
2023-06-19T18:58:29.550Z,58.98
2023-06-19T19:00:57.340Z,59.82
2023-06-19T19:03:24.697Z,60.13
2023-06-19T19:05:52.014Z,59.20
2023-06-19T19:08:19.206Z,59.85
2023-06-19T19:10:46.448Z,59.70
2023-06-19T19:13:14.038Z,65.77
2023-06-19T19:15:41.542Z,65.60
2023-06-19T19:18:10.215Z,65.85
2023-06-19T19:20:37.540Z,66.57
2023-06-19T19:23:04.714Z,67.79
2023-06-19T19:25:33.475Z,68.48
2023-06-19T19:28:00.787Z,68.62
2023-06-19T19:30:28.555Z,69.15
2023-06-19T19:32:56.126Z,69.39
2023-06-19T19:35:23.538Z,70.26
2023-06-19T19:37:50.835Z,69.86
2023-06-19T19:40:18.415Z,70.00
2023-06-19T19:42:45.628Z,70.60
2023-06-19T19:45:12.870Z,70.64
2023-06-19T19:47:40.125Z,70.62
2023-06-19T19:50:07.922Z,70.71
2023-06-19T19:52:35.104Z,71.36
2023-06-19T19:55:02.296Z,70.98
2023-06-19T19:57:29.656Z,70.74
2023-06-19T19:59:57.124Z,70.74
2023-06-19T20:02:24.325Z,71.13
2023-06-19T20:04:53.173Z,71.38
2023-06-19T20:07:20.391Z,71.47
2023-06-19T20:09:47.604Z,72.93
2023-06-19T20:12:21.243Z,73.56
2023-06-19T20:14:49.910Z,74.81
2023-06-19T20:17:17.091Z,76.08
2023-06-19T20:19:44.308Z,75.72
2023-06-19T20:22:11.494Z,75.68
2023-06-19T20:24:39.045Z,77.06
2023-06-19T20:27:07.774Z,77.25
2023-06-19T20:29:35.058Z,77.58
2023-06-19T20:32:02.288Z,77.41
2023-06-19T20:34:29.615Z,77.35
2023-06-19T20:36:57.692Z,77.18
2023-06-19T20:39:25.107Z,77.45
2023-06-19T20:41:52.384Z,77.29
2023-06-19T20:44:19.663Z,77.57
2023-06-19T20:46:46.856Z,77.96
2023-06-19T20:49:14.246Z,78.55
2023-06-19T20:51:41.493Z,78.20
2023-06-19T20:54:08.905Z,77.83
2023-06-19T20:56:36.222Z,77.95
2023-06-19T20:59:03.590Z,78.13
2023-06-19T21:01:31.134Z,78.69
2023-06-19T21:04:02.528Z,79.05
2023-06-19T21:06:30.849Z,78.40
2023-06-19T21:09:00.445Z,78.55
2023-06-19T21:11:27.901Z,78.94
2023-06-19T21:13:55.039Z,78.75
2023-06-19T21:16:22.421Z,78.88
2023-06-19T21:18:49.626Z,78.77
2023-06-19T21:21:16.844Z,78.58
2023-06-19T21:23:44.075Z,78.19
2023-06-19T21:26:11.320Z,77.72
2023-06-19T21:28:38.558Z,77.81
2023-06-19T21:31:05.920Z,77.67
2023-06-19T21:33:33.694Z,77.52
2023-06-19T21:36:01.223Z,77.77
2023-06-19T21:38:31.930Z,77.63
2023-06-19T21:40:59.195Z,77.75
2023-06-19T21:43:27.716Z,77.48
2023-06-19T21:45:57.792Z,77.47
2023-06-19T21:48:29.635Z,78.10
2023-06-19T21:50:56.914Z,78.13
2023-06-19T21:53:24.356Z,78.47
2023-06-19T21:55:51.626Z,78.42
2023-06-19T21:58:18.892Z,78.62
2023-06-19T22:00:46.149Z,78.57
2023-06-19T22:03:13.391Z,78.15
2023-06-19T22:05:40.672Z,78.66
2023-06-19T22:08:07.918Z,78.96
2023-06-19T22:10:35.129Z,79.74
2023-06-19T22:13:02.367Z,81.63
2023-06-19T22:15:29.638Z,85.10
2023-06-19T22:17:56.898Z,85.86
2023-06-19T22:20:24.503Z,85.05
2023-06-19T22:22:51.880Z,84.87
2023-06-19T22:25:19.312Z,84.45
2023-06-19T22:27:47.388Z,84.46
2023-06-19T22:30:16.204Z,83.76
2023-06-19T22:32:43.931Z,82.62
2023-06-19T22:35:11.353Z,82.05
2023-06-19T22:37:39.125Z,81.27
2023-06-19T22:40:08.546Z,81.36
2023-06-19T22:42:39.113Z,80.87
2023-06-19T22:45:10.384Z,80.68
2023-06-19T22:47:41.615Z,81.39
2023-06-19T22:50:11.389Z,81.26
2023-06-19T22:52:39.116Z,81.09
2023-06-19T22:55:06.871Z,80.79
2023-06-19T22:57:36.306Z,81.15
2023-06-19T23:00:14.725Z,80.76
2023-06-19T23:02:43.446Z,80.87
2023-06-19T23:05:12.151Z,80.89
2023-06-19T23:07:40.389Z,81.23
2023-06-19T23:10:11.284Z,81.37
2023-06-19T23:12:38.697Z,81.66
2023-06-19T23:15:21.790Z,82.21
2023-06-19T23:17:49.130Z,84.35
2023-06-19T23:20:18.631Z,83.75
2023-06-19T23:22:48.845Z,83.79
2023-06-19T23:25:16.285Z,84.62
2023-06-19T23:27:43.633Z,84.54
2023-06-19T23:30:11.126Z,84.29
2023-06-19T23:32:38.420Z,84.68
2023-06-19T23:35:06.061Z,85.35
2023-06-19T23:37:33.376Z,85.20
2023-06-19T23:40:00.588Z,85.82
2023-06-19T23:42:27.839Z,85.72
2023-06-19T23:44:55.038Z,86.04
2023-06-19T23:47:22.352Z,86.20
2023-06-19T23:49:50.253Z,85.99
2023-06-19T23:52:23.933Z,85.89
2023-06-19T23:54:57.177Z,86.48
2023-06-19T23:57:24.336Z,85.90
2023-06-19T23:59:51.553Z,87.08
